Address 0x37c9eb9e2c01ac910fa8928f9269978eb6dafae3

 
 
Txn Hash Method
Block
From
To
Value [Txn Fee]
0xfde957b8ce61c099ca72b8411255afe64c714c79aeb78ae9de04d65384958d52Transfer121179302021-10-26 21:46:0941 days 14 hrs ago0x37c9eb9e2c01ac910fa8928f9269978eb6dafae3OUT0x6fa2fa264f8ab6ac69639cffa0481f65070740b90.088386277920017 BNB0.000105
0xfe9aa0e37419ff1fd9b70422d5c834ff6f86ad3e6296f6484b63abc8ec6bfec3Transfer121046352021-10-26 10:32:1442 days 1 hr ago0x2cd2dfd12e39bbf455aebf62a0063287e27cbeac IN 0x37c9eb9e2c01ac910fa8928f9269978eb6dafae30.08829 BNB0.000105
0xe7b13d5012a698d82bc542b176fa19a013dc5708a2a521546b0c89d1972ca2b6Transfer120449572021-10-24 8:18:2344 days 3 hrs ago0x37c9eb9e2c01ac910fa8928f9269978eb6dafae3OUT0x86604b36c6b651a84b941acad4e0fd0e9c21f9d00.0015 BNB0.000105
0x0654f8d4305f56fd194e8b0c11830431966d4166cef318c0c409c29be89e4e7bSwap Exact Token...118810082021-10-18 13:36:1049 days 22 hrs ago0x37c9eb9e2c01ac910fa8928f9269978eb6dafae3OUT PancakeSwap: Router v20 BNB0.000617255
0xc45cad793c782c72a32c6b103000dd11ef3f56e5bbd23074858cd06501d6fe1fTransfer118809942021-10-18 13:35:2549 days 22 hrs ago0x6edc1d243e09fade898d1e09cc25421f542e8395 IN 0x37c9eb9e2c01ac910fa8928f9269978eb6dafae30.001311802450777 BNB0.000105
0xb0dc3a7a44dcf6acbdef82c8c8db51226e96571d03abe8be11a0d38f8085b8d4Transfer118775322021-10-18 10:39:0350 days 1 hr ago0x37c9eb9e2c01ac910fa8928f9269978eb6dafae3OUT0x6edc1d243e09fade898d1e09cc25421f542e83950.000688270840236 BNB0.000105
0x7c5d2e75c5929841f798a8ad75958c75ecd0e5c2000d224b356eefa083bee42bTransfer118622042021-10-17 21:50:2450 days 14 hrs ago0x37c9eb9e2c01ac910fa8928f9269978eb6dafae3OUT 0x10b7be52636882d7eca1611144a9df7642f95b5d0 BNB0.00025578
0x5d5fb674883de962573d2a3493721e603ddcb8e8561d4084fe2571f55e2d0123Transfer118621342021-10-17 21:46:5450 days 14 hrs ago0x86604b36c6b651a84b941acad4e0fd0e9c21f9d0 IN 0x37c9eb9e2c01ac910fa8928f9269978eb6dafae30.000764625840236 BNB0.000105
0xece00b4c259c5bf1bd0ae9964be999cd55a1932c4ed4e44f3a4ff80e671b83bdTransfer118295282021-10-16 18:28:3651 days 17 hrs ago0x37c9eb9e2c01ac910fa8928f9269978eb6dafae3OUT 0x10b7be52636882d7eca1611144a9df7642f95b5d0 BNB0.0002556
0xb7c6b5899940e21afaf1e1846a74b8e892e09dbdab63001d4d8dc4814e047a93Transfer118294852021-10-16 18:25:5651 days 17 hrs ago0x37c9eb9e2c01ac910fa8928f9269978eb6dafae3OUT0x86604b36c6b651a84b941acad4e0fd0e9c21f9d00.00072775 BNB0.000105
0xc1fa42f8b80daf06bd6a4815ca4b6eaa2c04e5f9ebc97bf63faea91795c5f91eSwap Exact ETH F...118255052021-10-16 15:03:2351 days 21 hrs ago0x37c9eb9e2c01ac910fa8928f9269978eb6dafae3OUT PancakeSwap: Router v20.002103472439112 BNB0.000627225
0xebb1bcbf22f6a16caa8abe27d406116adcc86d9454e53e76d263266254f8ef16Swap Exact Token...116826012021-10-11 14:29:1256 days 21 hrs ago0x37c9eb9e2c01ac910fa8928f9269978eb6dafae3OUT PancakeSwap: Router v20 BNB0.000617255
0x2547e6f099892c0dcb0734eb8275d069258895b9d70dd709f84b59abe7f5b0cfApprove116825972021-10-11 14:29:0056 days 21 hrs ago0x37c9eb9e2c01ac910fa8928f9269978eb6dafae3OUT 0x10b7be52636882d7eca1611144a9df7642f95b5d0 BNB0.000222015
0xc23508cb724f67d6d44a6f71faef154cc35a25e0ad2c108f8c8473dc2a460a82Transfer116825772021-10-11 14:28:0056 days 21 hrs ago0x4dec2a878ebb0ded523acfa651822aa024316d7e IN 0x37c9eb9e2c01ac910fa8928f9269978eb6dafae30.002 BNB0.000105
0x463120074e5154720533fdc0964a46158468e6737a0d6ba7df4e424b7068123aTransfer110469162021-09-19 9:30:1979 days 2 hrs ago0x37c9eb9e2c01ac910fa8928f9269978eb6dafae3OUT0xd9ae597e047bf20cd49e6d505d34653bd5e4e1290.007750494828741 BNB0.000105
0xaa9428d605e899497a035ebe78b562ba307e551b49cf5e1b8a9fe9dc139c3abdAirdrop110467572021-09-19 9:22:2279 days 2 hrs ago0x37c9eb9e2c01ac910fa8928f9269978eb6dafae3OUT 0x112fc0d4199ea38185fb6eb6ff2aab43eb1fc5690.003 BNB0.000392725
0xb3ff8ceda459aa45341b6b1409479b4d6792892961043e46ca24d0db89e1cd5eTransfer110467432021-09-19 9:21:4079 days 2 hrs ago0x86604b36c6b651a84b941acad4e0fd0e9c21f9d0 IN 0x37c9eb9e2c01ac910fa8928f9269978eb6dafae30.011248219828741 BNB0.000105
0xf536685d640fcfc1f2c8f3e86246df1e67eb33ec9250263311c2be92a266d0a8Transfer110048462021-09-17 22:21:3180 days 13 hrs ago0x37c9eb9e2c01ac910fa8928f9269978eb6dafae3OUT0x7104d3c13be7bd82e73553c2f17603c74426e9170.000085 BNB0.000105
0x171ed52a95ffc500b8e04e4ee89cfe270a8d02a4e3e8ef940c00f39ce87aaf41Transfer109637232021-09-16 12:02:3682 days 15 mins ago0x37c9eb9e2c01ac910fa8928f9269978eb6dafae3OUT0x4da233b3c6122efa5132c5ff328ba0ae542bc9270.035 BNB0.000105
0x8d335bc5e378561e97cf043c382be2cc7e4389e75f25d33e3c14f7bc4719fbb0Transfer109635972021-09-16 11:56:1882 days 21 mins ago0x37c9eb9e2c01ac910fa8928f9269978eb6dafae3OUT0x4dec2a878ebb0ded523acfa651822aa024316d7e0.001288989481188 BNB0.000105
0xd098611c7f400fc1748430edfe909470cf7244d0bbe196b093bb31de50a75edeSwap Exact Token...109632942021-09-16 11:40:2982 days 37 mins ago0x37c9eb9e2c01ac910fa8928f9269978eb6dafae3OUT PancakeSwap: Router v20 BNB0.00055259
0xacb38498f2b0bdf27c38585b9552fd2cf752b0898b764248858a26f97f2cc361Approve109632822021-09-16 11:39:5382 days 37 mins ago0x37c9eb9e2c01ac910fa8928f9269978eb6dafae3OUT BUSD-T Stablecoin0 BNB0.00022203
0x263ecb72bab602909af085b3e2f0710e0f90daa76649f74ef08b5ba6db19fd05Swap Exact Token...109508702021-09-16 1:18:0582 days 10 hrs ago0x37c9eb9e2c01ac910fa8928f9269978eb6dafae3OUT PancakeSwap: Router v20 BNB0.000914955
0x70d3a63baf99b9006d918dd1f63fd66d5ffc221629d0b4be6e82edce805f6347Approve109508642021-09-16 1:17:4782 days 11 hrs ago0x37c9eb9e2c01ac910fa8928f9269978eb6dafae3OUT 0x5f16ba80a1f620055e35215028e90808c7cc365c0 BNB0.000222545
0xe437ae713323200a7d280775ca445c70238f41bd185ba64be68f90fc63ccfec9Transfer109505522021-09-16 1:02:1182 days 11 hrs ago0xd9ae597e047bf20cd49e6d505d34653bd5e4e129 IN 0x37c9eb9e2c01ac910fa8928f9269978eb6dafae30.015873105571962 BNB0.000105
[ Download CSV Export 
Latest 4 internal transactions
Parent Txn Hash Block From To Value
0x0654f8d4305f56fd194e8b0c11830431966d4166cef318c0c409c29be89e4e7b118810082021-10-18 13:36:1049 days 22 hrs ago PancakeSwap: Router v20x37c9eb9e2c01ac910fa8928f9269978eb6dafae30.001111730469240783 BNB
0xebb1bcbf22f6a16caa8abe27d406116adcc86d9454e53e76d263266254f8ef16116826012021-10-11 14:29:1256 days 21 hrs ago PancakeSwap: Router v20x37c9eb9e2c01ac910fa8928f9269978eb6dafae30.002942742439112632 BNB
0xd098611c7f400fc1748430edfe909470cf7244d0bbe196b093bb31de50a75ede109632942021-09-16 11:40:2982 days 37 mins ago PancakeSwap: Router v20x37c9eb9e2c01ac910fa8928f9269978eb6dafae30.022728003909226213 BNB
0xb2047830d494172df53ab06c6ce3c532b873081eb00cc3aadc8e41238d4ee6a1103094212021-08-24 13:29:00104 days 22 hrs ago 0x5f16ba80a1f620055e35215028e90808c7cc365c0x37c9eb9e2c01ac910fa8928f9269978eb6dafae30.005 BNB
[ Download CSV Export 
Loading

Contract Name:
0 BNB

Compiler Version
0

Optimization Enabled:
0 BNB

Other Settings:
-NA-
Block Transaction Gas Used Reward
Age Block Fee Address BC Fee Address Voting Power Jailed Incoming
Block Uncle Number Difficulty Gas Used Reward
Loading
Loading
Make sure to use the "Vote Down" button for any spammy posts, and the "Vote Up" for interesting conversations.